Terminal Aerodrome Forecast
Issued by NWS Albuquerque, NM

Home | Current Version | Previous Version | Text Only | Print | Product List | Glossary On
Versions: 1 2 3 4 5 6 7 8 9 10 11 12 13 14 15 16 17 18
000
FTUS45 KABQ 191700
TAFABQ
TAF
KABQ 191734Z 1918/2018 VRB04KT P6SM FEW060
     FM191900 32010KT P6SM SCT080
     FM200200 VRB04KT P6SM FEW080 SCT100
     FM200600 08012G21KT P6SM FEW060 SCT120
     FM201200 05006KT P6SM SCT100=

USA.gov is the U.S. government's official web portal to all federal, state and local government web resources and services.